Time;durP1;ratioP1;P1;durP2;ratioP2;P2;SDS_P1;SDS_P2;PMS_P1;PMS_P2;Temp;Humidity;BMP_temperature;BMP_pressure;BME280_temperature;BME280_humidity;BME280_pressure;Samples;Min_cycle;Max_cycle;Signal;HPM_P1;HPM_P2
2022/07/27 00:01:36;;;;;;;2.30;1.35;;;15.00;99.90;;;;;;5054389;28;20021;-57
2022/07/27 00:04:02;;;;;;;4.22;1.45;;;15.00;99.90;;;;;;5054352;28;20128;-57
2022/07/27 00:06:28;;;;;;;3.13;1.60;;;14.90;99.90;;;;;;5053910;28;20099;-57
2022/07/27 00:08:53;;;;;;;3.30;1.45;;;14.70;99.90;;;;;;5054312;28;20123;-57
2022/07/27 00:11:19;;;;;;;2.67;1.50;;;14.70;99.90;;;;;;5054394;28;20025;-58
2022/07/27 00:13:45;;;;;;;2.40;1.40;;;14.70;99.90;;;;;;5054259;28;20037;-57
2022/07/27 00:16:12;;;;;;;3.35;1.50;;;14.70;99.90;;;;;;5054633;28;20021;-57
2022/07/27 00:18:37;;;;;;;2.70;1.60;;;14.70;99.90;;;;;;5054172;28;20021;-57
2022/07/27 00:21:03;;;;;;;2.55;1.75;;;14.60;99.90;;;;;;5053766;28;20064;-57
2022/07/27 00:23:29;;;;;;;2.45;1.58;;;14.50;99.90;;;;;;5054207;28;20074;-57
2022/07/27 00:25:54;;;;;;;2.75;1.55;;;14.50;99.90;;;;;;5054323;28;20037;-57
2022/07/27 00:28:20;;;;;;;2.63;1.30;;;14.40;99.90;;;;;;5054072;28;20103;-57
2022/07/27 00:30:46;;;;;;;3.10;1.50;;;14.30;99.90;;;;;;5054012;28;20440;-57
2022/07/27 00:33:12;;;;;;;3.97;1.50;;;14.10;99.90;;;;;;5052522;28;20227;-57
2022/07/27 00:35:37;;;;;;;3.35;1.77;;;14.20;99.90;;;;;;5053441;28;20029;-57
2022/07/27 00:38:03;;;;;;;1.50;1.30;;;14.00;99.90;;;;;;5054219;28;20025;-57
2022/07/27 00:40:29;;;;;;;2.38;1.60;;;14.00;99.90;;;;;;5053764;28;20108;-57
2022/07/27 00:42:54;;;;;;;2.40;1.38;;;14.10;99.90;;;;;;5053650;28;20418;-57
2022/07/27 00:45:20;;;;;;;1.80;1.30;;;14.10;99.90;;;;;;5054131;28;20029;-57
2022/07/27 00:47:46;;;;;;;1.83;1.30;;;14.10;99.90;;;;;;5053482;28;20025;-58
2022/07/27 00:50:12;;;;;;;2.00;1.35;;;14.00;99.90;;;;;;5053232;28;20048;-58
2022/07/27 00:52:40;;;;;;;2.03;1.42;;;13.90;99.90;;;;;;5053415;28;20025;-58
2022/07/27 00:55:06;;;;;;;2.08;1.40;;;13.80;99.90;;;;;;5053514;28;20025;-57
2022/07/27 00:57:32;;;;;;;2.45;1.25;;;13.70;99.90;;;;;;5053898;28;20043;-57
2022/07/27 00:59:57;;;;;;;3.38;1.42;;;13.70;99.90;;;;;;5053144;28;20025;-57
2022/07/27 01:02:25;;;;;;;1.85;1.40;;;13.60;99.90;;;;;;5053309;28;20025;-58
2022/07/27 01:04:51;;;;;;;2.78;1.52;;;13.60;99.90;;;;;;5053184;28;20029;-57
2022/07/27 01:07:16;;;;;;;2.88;1.40;;;13.60;99.90;;;;;;5053481;28;20063;-58
2022/07/27 01:09:58;;;;;;;1.80;1.40;;;13.60;99.90;;;;;;5053161;28;20508;-58
2022/07/27 01:12:31;;;;;;;2.38;1.55;;;13.50;99.90;;;;;;5053088;28;20037;-58
2022/07/27 01:14:57;;;;;;;3.00;1.80;;;13.50;99.90;;;;;;5053019;28;20087;-57
2022/07/27 01:17:25;;;;;;;3.17;1.67;;;13.40;99.90;;;;;;5053195;28;20029;-56
2022/07/27 01:19:51;;;;;;;3.03;1.50;;;13.20;99.90;;;;;;5052701;28;20032;-57
2022/07/27 01:22:17;;;;;;;3.40;1.60;;;13.30;99.90;;;;;;5053218;28;20029;-57
2022/07/27 01:24:43;;;;;;;2.78;1.70;;;13.40;99.90;;;;;;5053181;28;20036;-57
2022/07/27 01:27:09;;;;;;;4.40;1.58;;;13.40;99.90;;;;;;5053019;28;20049;-57
2022/07/27 01:29:35;;;;;;;1.63;1.40;;;13.40;99.90;;;;;;5052737;28;20426;-57
2022/07/27 01:32:02;;;;;;;4.00;1.95;;;13.30;99.90;;;;;;5052792;28;20108;-57
2022/07/27 01:34:28;;;;;;;3.25;1.73;;;13.30;99.90;;;;;;5052764;28;20135;-57
2022/07/27 01:36:54;;;;;;;2.47;1.65;;;13.30;99.90;;;;;;5052460;28;20541;-57
2022/07/27 01:39:20;;;;;;;2.00;1.67;;;13.20;99.90;;;;;;5053143;28;20033;-58
2022/07/27 01:41:46;;;;;;;2.10;1.50;;;13.10;99.90;;;;;;5052416;28;20120;-57
2022/07/27 01:44:12;;;;;;;3.63;1.70;;;13.10;99.90;;;;;;5052566;28;20159;-58
2022/07/27 01:46:38;;;;;;;2.08;1.30;;;13.20;99.90;;;;;;5052410;28;20032;-56
2022/07/27 01:49:04;;;;;;;2.72;1.35;;;13.20;99.90;;;;;;5052491;28;20540;-58
2022/07/27 01:51:29;;;;;;;3.40;1.60;;;13.00;99.90;;;;;;5052025;28;20013;-57
2022/07/27 01:53:55;;;;;;;2.13;1.60;;;13.00;99.90;;;;;;5052723;28;20398;-57
2022/07/27 01:56:21;;;;;;;2.45;1.48;;;12.90;99.90;;;;;;5052292;28;20021;-58
2022/07/27 01:58:47;;;;;;;3.60;2.08;;;12.80;99.90;;;;;;5052136;28;20143;-57
2022/07/27 02:01:13;;;;;;;6.97;2.00;;;12.80;99.90;;;;;;5052327;28;20494;-57
2022/07/27 02:03:38;;;;;;;2.20;1.70;;;12.70;99.90;;;;;;5051779;28;20025;-58
2022/07/27 02:06:04;;;;;;;2.83;1.58;;;12.60;99.90;;;;;;5052194;28;20036;-57
2022/07/27 02:08:30;;;;;;;2.60;1.70;;;12.50;99.90;;;;;;5052243;28;20047;-58
2022/07/27 02:13:46;;;;;;;2.40;1.60;;;12.50;99.90;;;;;;5051543;28;20567;-57
2022/07/27 02:16:13;;;;;;;3.78;1.80;;;12.40;99.90;;;;;;5051987;28;20025;-57
2022/07/27 02:18:39;;;;;;;2.50;1.73;;;12.50;99.90;;;;;;5050389;28;20112;-58
2022/07/27 02:21:05;;;;;;;2.95;1.77;;;12.50;99.90;;;;;;5052343;28;20108;-57
2022/07/27 02:23:32;;;;;;;2.05;1.52;;;12.30;99.90;;;;;;5051465;28;20033;-57
2022/07/27 02:25:58;;;;;;;2.20;1.90;;;12.30;99.90;;;;;;5051805;28;20021;-58
2022/07/27 02:28:23;;;;;;;2.30;1.85;;;12.30;99.90;;;;;;5051816;28;20116;-57
2022/07/27 02:30:49;;;;;;;3.42;1.75;;;12.30;99.90;;;;;;5051690;28;20013;-57
2022/07/27 02:33:15;;;;;;;2.70;1.70;;;12.30;99.90;;;;;;5051941;28;20102;-56
2022/07/27 02:35:42;;;;;;;4.22;1.50;;;12.20;99.90;;;;;;5051616;28;20029;-58
2022/07/27 02:38:07;;;;;;;2.42;1.52;;;12.20;99.90;;;;;;5051561;28;20535;-57
2022/07/27 02:40:33;;;;;;;3.92;1.77;;;12.20;99.90;;;;;;5051950;28;20123;-57
2022/07/27 02:42:59;;;;;;;3.58;1.67;;;12.20;99.90;;;;;;5051347;28;20060;-56
2022/07/27 02:45:24;;;;;;;4.25;1.98;;;12.20;99.90;;;;;;5051758;28;20097;-57
2022/07/27 02:47:50;;;;;;;2.60;1.60;;;12.20;99.90;;;;;;5051578;28;20029;-57
2022/07/27 02:50:16;;;;;;;3.67;1.63;;;12.00;99.90;;;;;;5051535;28;20053;-57
2022/07/27 02:52:41;;;;;;;3.90;1.90;;;12.00;99.90;;;;;;5051616;28;20029;-55
2022/07/27 02:55:08;;;;;;;2.25;1.50;;;11.90;99.90;;;;;;5051941;28;20078;-57
2022/07/27 02:57:36;;;;;;;2.60;1.85;;;11.80;99.90;;;;;;5051452;28;20474;-57
2022/07/27 03:00:08;;;;;;;2.75;1.65;;;12.00;99.90;;;;;;5051263;28;20086;-56
2022/07/27 03:02:34;;;;;;;2.22;1.70;;;12.00;99.90;;;;;;5051599;28;20040;-56
2022/07/27 03:04:59;;;;;;;3.03;1.67;;;12.00;99.90;;;;;;5051394;28;20386;-57
2022/07/27 03:07:25;;;;;;;3.60;2.10;;;12.00;99.90;;;;;;5051364;28;20033;-57
2022/07/27 03:09:51;;;;;;;3.25;1.77;;;11.80;99.90;;;;;;5051469;28;20032;-56
2022/07/27 03:12:16;;;;;;;2.35;1.85;;;11.60;99.90;;;;;;5051155;28;20036;-56
2022/07/27 03:14:42;;;;;;;3.03;1.70;;;11.60;99.90;;;;;;5051213;28;20104;-56
2022/07/27 03:17:08;;;;;;;2.63;1.70;;;11.70;99.90;;;;;;5051430;28;20526;-57
2022/07/27 03:19:33;;;;;;;2.55;1.90;;;11.80;99.90;;;;;;5051796;28;20196;-57
2022/07/27 03:21:59;;;;;;;2.10;1.70;;;11.70;99.90;;;;;;5051404;28;20037;-56
2022/07/27 03:24:25;;;;;;;1.88;1.60;;;11.60;99.90;;;;;;5051918;28;20024;-56
2022/07/27 03:26:51;;;;;;;2.33;1.90;;;11.50;99.90;;;;;;5054878;28;20456;-56
2022/07/27 03:29:16;;;;;;;3.38;1.70;;;11.50;99.90;;;;;;5054679;28;20037;-57
2022/07/27 03:31:44;;;;;;;2.22;1.80;;;11.60;99.90;;;;;;5054966;28;20054;-57
2022/07/27 03:34:10;;;;;;;2.30;1.60;;;11.60;99.90;;;;;;5055266;28;20071;-56
2022/07/27 03:36:35;;;;;;;5.18;1.80;;;11.60;99.90;;;;;;5054977;28;20041;-57
2022/07/27 03:39:01;;;;;;;4.03;1.60;;;11.50;99.90;;;;;;5054665;28;20456;-57
2022/07/27 03:41:27;;;;;;;3.72;1.75;;;11.50;99.90;;;;;;5054703;28;20048;-56
2022/07/27 03:43:52;;;;;;;3.22;2.10;;;11.50;99.90;;;;;;5054520;28;20386;-55
2022/07/27 03:46:18;;;;;;;2.22;2.00;;;11.40;99.90;;;;;;5054986;28;20021;-57
2022/07/27 03:48:44;;;;;;;3.67;2.30;;;11.30;99.90;;;;;;5054896;28;20025;-56
2022/07/27 03:51:09;;;;;;;2.85;1.85;;;11.40;99.90;;;;;;5054931;28;20025;-57
2022/07/27 03:53:35;;;;;;;3.92;2.00;;;11.30;99.90;;;;;;5054751;28;20486;-57
2022/07/27 03:56:01;;;;;;;2.53;2.00;;;11.30;99.90;;;;;;5053367;28;20115;-55
2022/07/27 03:58:26;;;;;;;4.10;2.08;;;11.20;99.90;;;;;;5054323;28;20033;-56
2022/07/27 04:00:52;;;;;;;3.40;1.80;;;11.20;99.90;;;;;;5054720;28;20461;-56
2022/07/27 04:03:18;;;;;;;2.75;1.95;;;11.20;99.90;;;;;;5054567;28;20029;-56
2022/07/27 04:05:43;;;;;;;3.67;2.55;;;11.20;99.90;;;;;;5054831;28;20164;-57
2022/07/27 04:08:09;;;;;;;3.42;2.47;;;11.00;99.90;;;;;;5054392;28;20087;-57
2022/07/27 04:10:35;;;;;;;4.03;2.40;;;10.90;99.90;;;;;;5054126;28;20045;-55
2022/07/27 04:13:01;;;;;;;3.85;2.30;;;10.90;99.90;;;;;;5054040;28;20037;-56
2022/07/27 04:15:27;;;;;;;4.22;2.80;;;10.80;99.90;;;;;;5054255;28;20029;-56
2022/07/27 04:17:52;;;;;;;4.88;2.60;;;10.80;99.90;;;;;;5054139;28;20545;-57
2022/07/27 04:20:18;;;;;;;4.85;2.60;;;10.80;99.90;;;;;;5054133;28;20021;-57
2022/07/27 04:22:45;;;;;;;3.75;2.90;;;10.80;99.90;;;;;;5053049;28;20039;-57
2022/07/27 04:25:11;;;;;;;4.13;3.08;;;10.80;99.90;;;;;;5053976;28;20066;-56
2022/07/27 04:27:37;;;;;;;4.05;2.58;;;10.80;99.90;;;;;;5053609;28;20116;-57
2022/07/27 04:30:04;;;;;;;6.50;3.10;;;10.80;99.90;;;;;;5054077;28;20025;-56
2022/07/27 04:32:30;;;;;;;5.82;2.70;;;10.70;99.90;;;;;;5053960;28;20114;-56
2022/07/27 04:34:56;;;;;;;5.28;3.22;;;10.70;99.90;;;;;;5053578;28;20021;-57
2022/07/27 04:37:21;;;;;;;5.10;3.15;;;10.70;99.90;;;;;;5053745;28;20043;-57
2022/07/27 04:39:47;;;;;;;4.30;2.67;;;10.60;99.90;;;;;;5053699;28;20055;-57
2022/07/27 04:42:13;;;;;;;5.40;2.90;;;10.60;99.90;;;;;;5053325;28;20103;-56
2022/07/27 04:44:38;;;;;;;4.15;2.78;;;10.60;99.90;;;;;;5053642;28;20508;-56
2022/07/27 04:47:04;;;;;;;4.85;2.60;;;10.50;99.90;;;;;;5053650;28;20036;-56
2022/07/27 04:49:30;;;;;;;7.10;3.28;;;10.50;99.90;;;;;;5054053;28;20075;-56
2022/07/27 04:51:55;;;;;;;4.55;2.67;;;10.60;99.90;;;;;;5052408;28;20047;-56
2022/07/27 04:54:21;;;;;;;3.40;2.53;;;10.60;99.90;;;;;;5053507;28;20079;-57
2022/07/27 04:56:47;;;;;;;3.70;2.63;;;10.50;99.90;;;;;;5053093;28;20419;-57
2022/07/27 04:59:12;;;;;;;7.63;3.10;;;10.50;99.90;;;;;;5053706;28;20086;-55
2022/07/27 05:01:38;;;;;;;3.33;2.90;;;10.50;99.90;;;;;;5053308;28;20029;-57
2022/07/27 05:04:04;;;;;;;5.30;2.80;;;10.50;99.90;;;;;;5053178;28;20049;-56
2022/07/27 05:06:31;;;;;;;6.28;2.80;;;10.50;99.90;;;;;;5051975;28;20068;-57
2022/07/27 05:08:58;;;;;;;3.70;3.00;;;10.60;99.90;;;;;;5053161;28;20098;-56
2022/07/27 05:11:24;;;;;;;8.40;3.17;;;10.60;99.90;;;;;;5053003;28;20100;-55
2022/07/27 05:13:49;;;;;;;5.57;2.90;;;10.70;99.90;;;;;;5052070;28;20137;-55
2022/07/27 05:16:15;;;;;;;4.65;3.25;;;10.70;99.90;;;;;;5053147;28;20025;-54
2022/07/27 05:18:41;;;;;;;5.00;3.40;;;10.60;99.90;;;;;;5053176;28;20116;-57
2022/07/27 05:21:08;;;;;;;5.65;3.25;;;10.70;99.90;;;;;;5052914;28;20029;-58
2022/07/27 05:23:34;;;;;;;5.13;3.45;;;10.60;99.90;;;;;;5052846;28;20027;-56
2022/07/27 05:26:00;;;;;;;5.72;3.00;;;10.70;99.90;;;;;;5053059;28;20025;-55
2022/07/27 05:28:27;;;;;;;5.80;3.00;;;10.80;99.90;;;;;;5052929;28;20017;-56
2022/07/27 05:30:53;;;;;;;5.00;3.00;;;10.80;99.90;;;;;;5052806;28;20076;-55
2022/07/27 05:33:18;;;;;;;5.95;2.70;;;10.90;99.90;;;;;;5052719;28;20060;-57
2022/07/27 05:35:44;;;;;;;4.55;2.75;;;11.00;99.90;;;;;;5052505;28;20033;-56
2022/07/27 05:38:10;;;;;;;6.78;2.85;;;10.90;99.90;;;;;;5052709;28;20021;-54
2022/07/27 05:40:36;;;;;;;6.28;2.70;;;10.90;99.90;;;;;;5052312;28;20020;-56
2022/07/27 05:43:02;;;;;;;5.80;2.75;;;11.00;99.90;;;;;;5052526;28;20064;-56
2022/07/27 05:45:28;;;;;;;4.35;2.78;;;11.00;99.90;;;;;;5052561;28;20033;-56
2022/07/27 05:47:54;;;;;;;5.65;2.70;;;11.00;99.90;;;;;;5051991;28;20509;-55
2022/07/27 05:50:20;;;;;;;8.32;3.00;;;11.10;99.90;;;;;;5052532;28;20547;-56
2022/07/27 05:52:45;;;;;;;5.53;3.13;;;11.20;99.90;;;;;;5052678;28;20051;-56
2022/07/27 05:55:12;;;;;;;5.30;2.83;;;11.30;99.90;;;;;;5052020;28;20040;-55
2022/07/27 05:57:39;;;;;;;10.18;3.20;;;11.40;99.90;;;;;;5052288;28;20426;-55
2022/07/27 06:00:07;;;;;;;6.05;3.55;;;11.60;99.90;;;;;;5052453;28;20029;-55
2022/07/27 06:02:32;;;;;;;5.78;3.67;;;11.80;99.90;;;;;;5052396;28;20032;-56
2022/07/27 06:04:58;;;;;;;6.72;3.78;;;11.90;99.90;;;;;;5052115;28;20031;-56
2022/07/27 06:10:08;;;;;;;;;;;12.30;99.90;;;;;;5052377;28;20116;-53
2022/07/27 06:12:41;;;;;;;7.05;4.45;;;12.50;99.90;;;;;;5052427;28;20011;-56
2022/07/27 06:15:09;;;;;;;8.80;4.45;;;12.80;99.90;;;;;;5052261;28;20039;-56
2022/07/27 06:17:35;;;;;;;13.30;4.18;;;13.00;99.90;;;;;;5052200;28;20090;-54
2022/07/27 06:20:03;;;;;;;11.75;4.60;;;13.20;99.90;;;;;;5052021;28;20025;-55
2022/07/27 06:22:29;;;;;;;10.30;4.43;;;13.50;99.90;;;;;;5052297;28;20060;-54
2022/07/27 06:24:54;;;;;;;7.47;3.70;;;13.80;99.90;;;;;;5051286;28;20053;-54
2022/07/27 06:27:20;;;;;;;6.35;3.58;;;14.10;99.90;;;;;;5052004;28;20025;-56
2022/07/27 06:29:46;;;;;;;6.55;3.70;;;14.50;99.90;;;;;;5051794;28;20482;-56
2022/07/27 06:32:11;;;;;;;9.68;4.35;;;14.70;99.90;;;;;;5051863;28;20116;-55
2022/07/27 06:34:37;;;;;;;5.93;3.50;;;15.20;99.90;;;;;;5051947;28;20021;-55
2022/07/27 06:37:03;;;;;;;9.80;3.50;;;15.80;99.90;;;;;;5051692;28;20100;-55
2022/07/27 06:39:29;;;;;;;14.68;3.92;;;16.10;99.90;;;;;;5051247;28;20366;-55
2022/07/27 06:41:55;;;;;;;13.57;4.03;;;16.20;99.90;;;;;;5051652;28;20382;-55
2022/07/27 06:44:21;;;;;;;13.93;3.70;;;16.40;99.90;;;;;;5052064;28;20025;-56
2022/07/27 06:46:47;;;;;;;10.40;3.42;;;16.70;99.90;;;;;;5051592;28;20120;-56
2022/07/27 06:49:12;;;;;;;9.65;3.15;;;18.40;99.90;;;;;;5051515;28;20049;-56
2022/07/27 06:51:38;;;;;;;8.93;2.90;;;17.90;99.90;;;;;;5051636;28;20033;-55
2022/07/27 06:54:05;;;;;;;6.20;2.80;;;18.10;99.90;;;;;;5051080;28;20045;-56
2022/07/27 06:56:31;;;;;;;6.65;3.03;;;18.30;99.90;;;;;;5051543;28;20108;-56
2022/07/27 06:58:57;;;;;;;6.72;2.90;;;18.90;99.90;;;;;;5053105;28;20035;-56
2022/07/27 07:01:23;;;;;;;6.95;2.83;;;18.70;99.90;;;;;;5055755;28;20025;-57
2022/07/27 07:03:48;;;;;;;4.40;2.55;;;18.80;99.90;;;;;;5055870;28;20029;-56
2022/07/27 07:06:14;;;;;;;4.90;2.63;;;19.10;99.90;;;;;;5055526;28;20104;-55
2022/07/27 07:08:40;;;;;;;4.70;2.30;;;19.30;99.90;;;;;;5055671;28;20028;-57
2022/07/27 07:11:06;;;;;;;5.28;2.47;;;20.00;99.90;;;;;;5055612;28;20408;-56
2022/07/27 07:13:32;;;;;;;4.05;2.63;;;20.50;99.90;;;;;;5055633;28;20051;-56
2022/07/27 07:15:58;;;;;;;3.38;2.20;;;20.90;99.90;;;;;;5055331;28;20048;-56
2022/07/27 07:18:24;;;;;;;4.25;2.20;;;21.00;99.90;;;;;;5055310;28;20028;-56
2022/07/27 07:20:49;;;;;;;2.47;1.80;;;21.50;99.90;;;;;;5054984;28;20021;-56
2022/07/27 07:23:15;;;;;;;4.13;2.10;;;21.70;99.90;;;;;;5055317;28;20029;-56
2022/07/27 07:25:41;;;;;;;3.22;1.92;;;22.60;99.90;;;;;;5055147;28;20023;-57
2022/07/27 07:28:07;;;;;;;4.78;2.00;;;22.40;99.90;;;;;;5055645;28;20029;-56
2022/07/27 07:30:33;;;;;;;4.05;1.90;;;23.50;99.90;;;;;;5055177;28;20021;-54
2022/07/27 07:32:58;;;;;;;4.32;2.08;;;23.00;99.90;;;;;;5053652;28;20433;-56
2022/07/27 07:35:25;;;;;;;4.80;1.80;;;22.90;99.90;;;;;;5054830;28;20052;-57
2022/07/27 07:37:51;;;;;;;4.93;2.03;;;23.50;99.90;;;;;;5054964;28;20370;-56
2022/07/27 07:40:18;;;;;;;3.55;2.00;;;24.50;99.90;;;;;;5054977;28;20055;-57
2022/07/27 07:42:56;;;;;;;5.80;2.03;;;24.70;99.90;;;;;;5054954;28;20138;-57
2022/07/27 07:45:23;;;;;;;4.82;1.73;;;24.90;99.90;;;;;;5053945;28;20047;-57
2022/07/27 07:47:50;;;;;;;7.30;2.25;;;25.10;99.90;;;;;;5054804;28;20074;-57
2022/07/27 07:50:16;;;;;;;3.42;1.40;;;26.00;99.90;;;;;;5054434;28;20033;-57
2022/07/27 07:52:43;;;;;;;5.72;1.63;;;26.40;99.90;;;;;;5054723;28;20021;-57
2022/07/27 07:55:09;;;;;;;4.53;1.60;;;26.40;99.90;;;;;;5054713;28;20063;-57
2022/07/27 07:57:35;;;;;;;6.88;1.60;;;26.90;99.90;;;;;;5055165;28;20044;-57
2022/07/27 08:00:03;;;;;;;4.22;1.42;;;26.80;99.90;;;;;;5054763;28;20025;-57
2022/07/27 08:02:29;;;;;;;5.03;1.80;;;27.30;99.90;;;;;;5054419;28;20049;-57
2022/07/27 08:04:54;;;;;;;3.97;1.40;;;28.30;99.90;;;;;;5054111;28;20478;-57
2022/07/27 08:07:20;;;;;;;3.92;1.23;;;28.40;98.10;;;;;;5054656;28;20552;-57
2022/07/27 08:09:46;;;;;;;5.18;1.55;;;29.50;97.00;;;;;;5054242;28;20112;-58
2022/07/27 08:12:12;;;;;;;3.40;1.30;;;30.00;95.40;;;;;;5054241;28;21912;-57
2022/07/27 08:14:37;;;;;;;3.13;1.20;;;29.80;95.90;;;;;;5054387;28;20085;-57
2022/07/27 08:17:03;;;;;;;3.35;1.15;;;29.60;95.10;;;;;;5054230;28;20033;-58
2022/07/27 08:19:29;;;;;;;3.85;1.30;;;30.30;94.00;;;;;;5053922;28;20440;-57
2022/07/27 08:21:54;;;;;;;4.25;1.58;;;30.90;92.00;;;;;;5054670;28;20051;-58
2022/07/27 08:24:20;;;;;;;3.50;1.40;;;31.10;91.90;;;;;;5054109;28;20032;-58
2022/07/27 08:26:46;;;;;;;2.80;1.10;;;32.50;90.20;;;;;;5052879;28;20037;-58
2022/07/27 08:29:11;;;;;;;2.90;1.30;;;33.10;87.00;;;;;;5054223;28;20052;-57
2022/07/27 08:31:38;;;;;;;2.00;1.13;;;32.80;89.20;;;;;;5054371;28;20025;-57
2022/07/27 08:34:04;;;;;;;1.45;0.80;;;32.40;87.60;;;;;;5053663;28;20078;-58
2022/07/27 08:36:29;;;;;;;2.00;0.93;;;32.10;85.60;;;;;;5053944;28;20037;-57
2022/07/27 08:38:55;;;;;;;1.67;0.95;;;32.40;81.70;;;;;;5053901;28;20037;-58
2022/07/27 08:41:23;;;;;;;7.40;1.13;;;32.90;81.50;;;;;;5054082;28;20029;-58
2022/07/27 08:43:49;;;;;;;2.17;1.10;;;33.20;76.90;;;;;;5053722;28;20149;-58
2022/07/27 08:46:17;;;;;;;1.70;0.90;;;33.50;78.90;;;;;;5053271;28;20104;-58
2022/07/27 08:48:43;;;;;;;2.85;1.05;;;34.00;79.10;;;;;;5053836;28;20425;-58
2022/07/27 08:51:10;;;;;;;2.00;1.00;;;35.10;75.10;;;;;;5053479;28;20466;-57
2022/07/27 08:53:36;;;;;;;1.77;0.77;;;35.80;75.10;;;;;;5053527;28;20037;-58
2022/07/27 08:56:02;;;;;;;3.10;0.90;;;35.40;76.50;;;;;;5052533;28;20504;-58
2022/07/27 08:58:28;;;;;;;3.17;1.00;;;35.50;74.90;;;;;;5052781;28;20021;-58
2022/07/27 09:00:54;;;;;;;1.05;0.88;;;35.10;72.90;;;;;;5053059;28;20021;-58
2022/07/27 09:03:21;;;;;;;4.03;1.20;;;36.50;70.50;;;;;;5053024;28;20035;-58
2022/07/27 09:05:51;;;;;;;2.80;0.93;;;36.10;71.90;;;;;;5053612;28;20462;-58
2022/07/27 09:08:27;;;;;;;1.73;1.10;;;35.90;71.00;;;;;;5053480;28;20048;-58
2022/07/27 09:10:55;;;;;;;2.88;1.10;;;36.40;71.00;;;;;;5052780;28;20393;-57
2022/07/27 09:13:25;;;;;;;1.58;1.00;;;37.00;70.10;;;;;;5050045;28;20098;-58
2022/07/27 09:15:52;;;;;;;2.20;1.20;;;37.20;67.20;;;;;;5053072;28;20425;-58
2022/07/27 09:18:21;;;;;;;2.95;1.30;;;37.20;69.90;;;;;;5052211;28;20104;-58
2022/07/27 09:21:19;;;;;;;1.67;1.10;;;38.30;66.70;;;;;;5052673;28;20100;-58
2022/07/27 09:23:50;;;;;;;2.35;1.30;;;37.00;67.90;;;;;;5049768;28;20471;-58
2022/07/27 09:26:25;;;;;;;2.40;1.30;;;38.60;66.10;;;;;;5052847;28;20402;-58
2022/07/27 09:28:57;;;;;;;3.20;1.15;;;39.60;67.00;;;;;;5050773;28;20436;-57
2022/07/27 09:31:24;;;;;;;1.95;1.17;;;39.70;65.80;;;;;;5050182;28;20029;-58
2022/07/27 09:33:52;;;;;;;2.35;1.20;;;40.40;65.80;;;;;;5052434;28;20021;-58
2022/07/27 09:36:21;;;;;;;2.63;1.30;;;40.30;63.70;;;;;;5052059;28;20029;-58
2022/07/27 09:38:54;;;;;;;2.13;1.30;;;39.40;64.20;;;;;;5052576;28;20482;-58
2022/07/27 09:41:21;;;;;;;1.92;1.27;;;39.70;63.80;;;;;;5051984;28;20433;-58
2022/07/27 09:43:53;;;;;;;3.22;1.25;;;40.30;63.30;;;;;;5052135;28;20037;-58
2022/07/27 09:46:29;;;;;;;2.80;1.30;;;40.70;60.60;;;;;;5051966;28;20033;-58
2022/07/27 09:48:54;;;;;;;3.60;1.30;;;40.70;60.10;;;;;;5052436;28;20055;-57
2022/07/27 09:51:24;;;;;;;2.33;1.10;;;42.40;57.30;;;;;;5051311;28;20032;-58
2022/07/27 09:53:50;;;;;;;2.67;1.40;;;40.20;59.50;;;;;;5051865;28;20037;-58
2022/07/27 09:56:16;;;;;;;3.10;1.60;;;40.90;60.40;;;;;;5051547;28;20021;-58
2022/07/27 09:58:47;;;;;;;2.50;1.23;;;42.10;60.60;;;;;;5051690;28;20526;-58
2022/07/27 10:01:19;;;;;;;3.85;1.50;;;42.10;55.80;;;;;;5049323;28;20421;-59
2022/07/27 10:03:46;;;;;;;1.90;1.50;;;39.00;57.20;;;;;;5055238;28;20056;-58
2022/07/27 10:06:12;;;;;;;2.75;1.60;;;39.00;59.40;;;;;;5054243;28;20021;-58
2022/07/27 10:08:40;;;;;;;3.75;1.80;;;41.70;59.00;;;;;;5051724;28;20033;-57
2022/07/27 10:11:07;;;;;;;3.10;1.65;;;43.60;55.80;;;;;;5051453;28;20497;-58
2022/07/27 10:13:34;;;;;;;3.35;2.00;;;45.20;55.90;;;;;;5052393;28;20044;-57
2022/07/27 10:16:03;;;;;;;3.65;1.80;;;44.40;53.60;;;;;;5051842;28;20067;-57
2022/07/27 10:18:51;;;;;;;2.83;1.90;;;44.60;54.50;;;;;;5052311;28;20414;-58
2022/07/27 10:21:18;;;;;;;2.75;2.00;;;45.80;54.30;;;;;;5052031;28;20044;-57
2022/07/27 10:24:21;;;;;;;2.83;1.80;;;47.10;52.70;;;;;;5051933;28;20391;-57
2022/07/27 10:26:47;;;;;;;3.75;1.60;;;42.90;55.50;;;;;;5048242;28;20040;-59
2022/07/27 10:29:13;;;;;;;3.47;1.58;;;41.10;56.80;;;;;;5051953;28;20024;-58
2022/07/27 10:31:41;;;;;;;2.08;1.70;;;40.30;57.00;;;;;;5052031;28;20025;-57
2022/07/27 10:34:09;;;;;;;3.03;1.67;;;40.20;57.40;;;;;;5051644;28;20086;-57
2022/07/27 10:36:45;;;;;;;2.03;1.52;;;39.60;57.60;;;;;;5051800;28;20025;-58
2022/07/27 10:39:26;;;;;;;2.65;1.48;;;38.90;58.10;;;;;;5051912;28;20017;-58
2022/07/27 10:41:52;;;;;;;3.65;1.50;;;38.30;59.10;;;;;;5051842;28;20049;-57
2022/07/27 10:44:22;;;;;;;2.75;1.35;;;38.20;59.80;;;;;;5051584;28;20057;-57
2022/07/27 10:46:53;;;;;;;2.00;1.50;;;37.40;60.60;;;;;;5051510;28;20053;-57
2022/07/27 10:49:22;;;;;;;3.95;1.80;;;36.90;61.10;;;;;;5051655;28;20033;-57
2022/07/27 10:51:48;;;;;;;2.10;1.52;;;36.80;59.50;;;;;;5051575;28;20064;-57
2022/07/27 10:54:26;;;;;;;3.08;1.40;;;36.50;61.90;;;;;;5050881;28;20017;-58
2022/07/27 10:56:56;;;;;;;5.65;1.80;;;36.40;60.50;;;;;;5050860;28;20055;-58
2022/07/27 10:59:43;;;;;;;4.43;1.60;;;35.80;61.90;;;;;;5051215;28;20029;-57
2022/07/27 11:02:11;;;;;;;2.90;1.42;;;35.30;60.90;;;;;;5051078;28;20029;-58
2022/07/27 11:04:49;;;;;;;2.55;1.35;;;35.00;63.10;;;;;;5051488;28;20033;-57
2022/07/27 11:07:17;;;;;;;2.90;1.70;;;35.80;60.90;;;;;;5051538;28;20367;-58
2022/07/27 11:09:43;;;;;;;2.40;1.50;;;36.60;61.30;;;;;;5051871;28;20068;-58
2022/07/27 11:12:10;;;;;;;3.20;1.85;;;35.80;60.80;;;;;;5051602;28;20121;-57
2022/07/27 11:14:44;;;;;;;2.97;1.90;;;35.80;61.60;;;;;;5051236;28;20064;-57
2022/07/27 11:17:10;;;;;;;6.05;1.85;;;35.20;62.20;;;;;;5051458;28;20021;-57
2022/07/27 11:19:35;;;;;;;4.30;1.63;;;34.60;61.00;;;;;;5051492;28;20124;-57
2022/07/27 11:22:02;;;;;;;2.90;1.70;;;34.00;61.70;;;;;;5051201;28;20032;-57
2022/07/27 11:24:27;;;;;;;3.45;1.88;;;35.20;64.50;;;;;;5051192;28;20120;-57
2022/07/27 11:26:53;;;;;;;2.92;1.75;;;35.30;60.50;;;;;;5051323;28;20092;-57
2022/07/27 11:29:22;;;;;;;2.53;1.83;;;35.20;61.80;;;;;;5051023;28;20025;-57
2022/07/27 11:31:51;;;;;;;4.25;1.58;;;34.90;59.60;;;;;;5051237;28;20021;-57
2022/07/27 11:34:19;;;;;;;4.22;1.90;;;33.90;63.40;;;;;;5051737;28;20104;-57
2022/07/27 11:36:49;;;;;;;5.07;1.98;;;34.20;60.40;;;;;;5051117;28;20039;-57
2022/07/27 11:39:23;;;;;;;3.55;1.70;;;34.90;64.20;;;;;;5051076;28;20028;-57
2022/07/27 11:41:53;;;;;;;3.60;1.73;;;35.10;61.30;;;;;;5050801;28;20052;-58
2022/07/27 11:44:19;;;;;;;3.28;1.73;;;34.60;61.00;;;;;;5051118;28;20037;-57
2022/07/27 11:46:47;;;;;;;2.20;1.52;;;35.30;61.70;;;;;;5054358;28;20078;-57
2022/07/27 11:49:25;;;;;;;3.20;1.70;;;35.60;63.20;;;;;;5055114;28;20029;-57
2022/07/27 11:51:51;;;;;;;4.50;1.70;;;34.50;60.10;;;;;;5054956;28;20089;-57
2022/07/27 11:54:19;;;;;;;3.13;1.85;;;33.80;61.60;;;;;;5053917;28;20031;-57
2022/07/27 11:56:48;;;;;;;3.72;1.55;;;32.70;62.00;;;;;;5054603;28;20028;-57
2022/07/27 11:59:19;;;;;;;4.63;1.58;;;31.80;65.80;;;;;;5054881;28;20028;-58
2022/07/27 12:01:53;;;;;;;3.13;1.50;;;32.50;65.10;;;;;;5055310;28;20033;-58
2022/07/27 12:04:24;;;;;;;3.10;1.83;;;33.00;65.80;;;;;;5054615;28;20044;-58
2022/07/27 12:07:13;;;;;;;4.03;1.75;;;35.10;64.20;;;;;;5054536;28;20028;-57
2022/07/27 12:09:43;;;;;;;3.70;2.00;;;35.20;61.30;;;;;;5054634;28;20033;-57
2022/07/27 12:12:14;;;;;;;2.83;1.85;;;34.20;61.00;;;;;;5054172;28;20090;-58
2022/07/27 12:15:03;;;;;;;2.72;1.70;;;33.50;62.20;;;;;;5054915;28;20081;-58
2022/07/27 12:17:29;;;;;;;3.50;1.92;;;33.50;63.40;;;;;;5051322;28;20044;-58
2022/07/27 12:20:00;;;;;;;3.05;1.90;;;31.90;63.10;;;;;;5054275;28;20025;-58
2022/07/27 12:22:32;;;;;;;3.97;1.88;;;31.50;64.20;;;;;;5053562;28;20381;-58
2022/07/27 12:25:00;;;;;;;4.55;2.10;;;31.00;66.80;;;;;;5053950;28;20040;-58
2022/07/27 12:27:27;;;;;;;3.35;2.05;;;30.20;64.80;;;;;;5054468;28;20029;-57
2022/07/27 12:29:57;;;;;;;3.47;1.90;;;29.40;68.00;;;;;;5054213;28;20029;-58
2022/07/27 12:32:23;;;;;;;4.10;1.92;;;31.80;66.30;;;;;;5054234;28;20025;-58
2022/07/27 12:34:49;;;;;;;5.05;2.08;;;31.50;65.50;;;;;;5054559;28;20041;-57
2022/07/27 12:37:15;;;;;;;2.63;2.10;;;31.20;66.40;;;;;;5053656;28;20493;-55
2022/07/27 12:39:43;;;;;;;4.07;1.90;;;32.00;67.70;;;;;;5052930;28;20083;-58
2022/07/27 12:42:09;;;;;;;3.25;2.00;;;32.40;65.40;;;;;;5053489;28;20047;-58
2022/07/27 12:44:38;;;;;;;3.95;1.80;;;31.60;67.40;;;;;;5054623;28;20029;-58
2022/07/27 12:50:03;;;;;;;4.55;2.05;;;31.80;65.90;;;;;;5053911;28;20114;-58
2022/07/27 12:52:30;;;;;;;2.58;1.70;;;32.00;66.10;;;;;;5053128;28;20087;-58
2022/07/27 12:54:56;;;;;;;4.82;1.92;;;32.00;67.20;;;;;;5053116;28;20021;-56
2022/07/27 12:57:22;;;;;;;3.28;1.90;;;31.10;68.50;;;;;;5052288;28;20199;-56